Time;durP1;ratioP1;P1;durP2;ratioP2;P2;SDS_P1;SDS_P2;PMS_P1;PMS_P2;Temp;Humidity;BMP_temperature;BMP_pressure;BME280_temperature;BME280_humidity;BME280_pressure;Samples;Min_cycle;Max_cycle;Signal;HPM_P1;HPM_P2
2023/10/27 00:02:11;;;;;;;0.50;0.40;;;;;;;16.60;100.00;94604.31;5132771;27;20427;-59
2023/10/27 00:04:40;;;;;;;0.40;0.30;;;;;;;16.67;100.00;94599.25;5133212;27;20487;-59
2023/10/27 00:07:09;;;;;;;0.40;0.30;;;;;;;16.61;100.00;94611.22;5133381;27;20495;-59
2023/10/27 00:09:37;;;;;;;0.40;0.30;;;;;;;15.91;100.00;94611.84;5132890;27;20470;-59
2023/10/27 00:12:06;;;;;;;4.80;0.60;;;;;;;15.24;100.00;94559.78;5132632;27;20498;-59
2023/10/27 00:14:35;;;;;;;0.60;0.50;;;;;;;15.73;100.00;94621.78;5133033;27;20443;-60
2023/10/27 00:17:03;;;;;;;0.50;0.30;;;;;;;16.10;100.00;94636.28;5133082;27;20470;-59
2023/10/27 00:19:32;;;;;;;0.50;0.30;;;;;;;16.31;100.00;94640.63;5132642;27;20559;-60
2023/10/27 00:22:01;;;;;;;0.40;0.30;;;;;;;16.33;100.00;94633.06;5132969;27;20437;-60
2023/10/27 00:24:30;;;;;;;0.50;0.40;;;;;;;16.47;100.00;94630.16;5132922;27;20466;-59
2023/10/27 00:26:58;;;;;;;0.53;0.43;;;;;;;16.51;100.00;94636.44;5132942;27;20527;-60
2023/10/27 00:29:26;;;;;;;0.97;0.40;;;;;;;16.45;100.00;94638.50;5132495;27;20537;-58
2023/10/27 00:31:54;;;;;;;0.40;0.20;;;;;;;16.54;100.00;94643.84;5132619;27;20442;-59
2023/10/27 00:34:23;;;;;;;0.60;0.40;;;;;;;16.63;100.00;94639.22;5132740;27;20449;-58
2023/10/27 00:36:51;;;;;;;0.40;0.20;;;;;;;16.47;100.00;94630.16;5132606;27;20442;-59
2023/10/27 00:39:21;;;;;;;0.40;0.30;;;;;;;16.45;100.00;94625.13;5132711;27;20836;-59
2023/10/27 00:41:49;;;;;;;0.40;0.20;;;;;;;16.30;100.00;94633.69;5132554;28;20461;-59
2023/10/27 00:44:17;;;;;;;0.47;0.30;;;;;;;16.36;100.00;94636.97;5131654;27;20431;-58
2023/10/27 00:46:46;;;;;;;0.50;0.30;;;;;;;16.20;100.00;94633.25;5132568;28;20438;-58
2023/10/27 00:49:15;;;;;;;0.50;0.30;;;;;;;16.07;100.00;94619.00;5132743;28;20495;-58
2023/10/27 00:51:46;;;;;;;0.40;0.30;;;;;;;15.77;100.00;94604.78;5132771;28;20497;-59
2023/10/27 00:54:16;;;;;;;0.50;0.30;;;;;;;16.26;100.00;94622.09;5132695;28;20441;-58
2023/10/27 00:56:46;;;;;;;0.40;0.33;;;;;;;16.38;100.00;94624.84;5132879;28;20438;-58
2023/10/27 00:59:15;;;;;;;0.50;0.40;;;;;;;16.35;100.00;94614.00;5106255;28;20495;-59
2023/10/27 01:01:43;;;;;;;0.50;0.40;;;;;;;16.37;100.00;94611.78;5131952;28;20518;-58
2023/10/27 01:04:12;;;;;;;0.40;0.30;;;;;;;16.48;100.00;94589.72;5132901;28;20462;-59
2023/10/27 01:06:41;;;;;;;0.60;0.60;;;;;;;16.46;100.00;94602.63;5132536;28;20462;-57
2023/10/27 01:09:10;;;;;;;0.50;0.30;;;;;;;16.46;100.00;94596.50;5131377;28;20472;-58
2023/10/27 01:11:41;;;;;;;0.40;0.20;;;;;;;16.59;100.00;94592.84;5132053;28;20513;-57
2023/10/27 01:14:10;;;;;;;0.80;0.50;;;;;;;16.73;100.00;94597.94;5122413;28;20824;-58
2023/10/27 01:16:39;;;;;;;0.40;0.20;;;;;;;16.87;100.00;94599.28;5131990;28;20440;-58
2023/10/27 01:19:07;;;;;;;0.93;0.93;;;;;;;16.76;100.00;94595.41;5132125;28;20442;-60
2023/10/27 01:21:36;;;;;;;0.47;0.30;;;;;;;16.70;100.00;94591.34;5131676;28;21011;-58
2023/10/27 01:24:07;;;;;;;0.50;0.30;;;;;;;16.62;100.00;94594.09;5132119;28;20523;-59
2023/10/27 01:26:35;;;;;;;0.50;0.30;;;;;;;16.27;100.00;94599.56;5131917;28;20458;-59
2023/10/27 01:29:03;;;;;;;0.63;0.30;;;;;;;15.99;100.00;94584.31;5132361;28;20862;-59
2023/10/27 01:31:32;;;;;;;1.17;1.17;;;;;;;16.03;100.00;94596.69;5132559;28;21078;-59
2023/10/27 01:34:00;;;;;;;0.60;0.50;;;;;;;16.23;100.00;94590.63;5132389;28;21010;-59
2023/10/27 01:36:28;;;;;;;0.50;0.40;;;;;;;16.36;100.00;94599.53;5131355;28;20435;-59
2023/10/27 01:38:56;;;;;;;0.50;0.40;;;;;;;16.51;100.00;94602.44;5132154;28;20494;-59
2023/10/27 01:41:26;;;;;;;0.60;0.40;;;;;;;16.44;100.00;94604.06;5132357;28;20477;-59
2023/10/27 01:43:54;;;;;;;0.40;0.20;;;;;;;16.44;100.00;94602.16;5131894;28;20932;-59
2023/10/27 01:46:23;;;;;;;1.43;1.43;;;;;;;16.49;100.00;94593.94;5132513;28;20430;-59
2023/10/27 01:48:51;;;;;;;0.40;0.20;;;;;;;16.41;100.00;94597.47;5131750;28;20966;-59
2023/10/27 01:51:20;;;;;;;0.60;0.50;;;;;;;16.35;100.00;94608.66;5132050;28;20445;-60
2023/10/27 01:53:49;;;;;;;0.93;0.50;;;;;;;16.48;100.00;94600.41;5131947;28;20462;-59
2023/10/27 01:56:17;;;;;;;0.40;0.30;;;;;;;16.52;100.00;94601.34;5132640;27;20988;-60
2023/10/27 01:58:47;;;;;;;0.50;0.30;;;;;;;16.25;100.00;94604.47;5134950;27;20444;-60
2023/10/27 02:01:16;;;;;;;0.40;0.30;;;;;;;16.36;100.00;94604.88;5135397;27;20501;-60
2023/10/27 02:03:44;;;;;;;2.50;0.40;;;;;;;16.27;100.00;94580.06;5135051;27;20430;-59
2023/10/27 02:06:13;;;;;;;0.50;0.30;;;;;;;16.30;100.00;94623.00;5135310;27;20438;-59
2023/10/27 02:08:41;;;;;;;0.40;0.30;;;;;;;16.02;100.00;94621.84;5135237;27;20434;-59
2023/10/27 02:11:09;;;;;;;0.63;0.50;;;;;;;15.90;100.00;94624.41;5134691;27;20934;-59
2023/10/27 02:13:38;;;;;;;0.73;0.57;;;;;;;15.51;100.00;94569.34;5134388;27;20581;-59
2023/10/27 02:16:08;;;;;;;0.60;0.60;;;;;;;15.93;100.00;94626.44;5134797;27;20430;-60
2023/10/27 02:18:36;;;;;;;0.40;0.30;;;;;;;15.60;100.00;94620.88;5135001;27;20849;-59
2023/10/27 02:21:05;;;;;;;0.60;0.50;;;;;;;15.28;100.00;94600.75;5134597;27;20462;-59
2023/10/27 02:23:34;;;;;;;4.50;1.40;;;;;;;15.56;100.00;94614.56;5134841;27;20484;-58
2023/10/27 02:26:02;;;;;;;0.50;0.30;;;;;;;15.87;100.00;94635.72;5134388;27;20530;-57
2023/10/27 02:28:30;;;;;;;0.40;0.20;;;;;;;16.03;100.00;94636.78;5134881;27;20503;-58
2023/10/27 02:30:59;;;;;;;0.60;0.60;;;;;;;15.71;100.00;94637.34;5134862;27;20461;-58
2023/10/27 02:33:28;;;;;;;0.40;0.30;;;;;;;15.80;100.00;94635.44;5134529;27;20483;-59
2023/10/27 02:35:56;;;;;;;0.73;0.70;;;;;;;16.01;100.00;94633.66;5133841;27;20443;-59
2023/10/27 02:38:25;;;;;;;0.40;0.20;;;;;;;15.98;100.00;94630.81;5134465;27;20529;-59
2023/10/27 02:40:53;;;;;;;0.50;0.40;;;;;;;15.77;100.00;94642.19;5134209;27;20565;-59
2023/10/27 02:43:21;;;;;;;2.60;1.13;;;;;;;15.89;100.00;94641.53;5134372;27;20491;-59
2023/10/27 02:46:00;;;;;;;0.50;0.30;;;;;;;15.97;100.00;94624.69;5134423;27;20944;-58
2023/10/27 02:48:30;;;;;;;0.50;0.40;;;;;;;15.59;100.00;94632.63;5134208;27;20513;-59
2023/10/27 02:50:58;;;;;;;5.73;0.40;;;;;;;15.49;100.00;94629.50;5133837;27;20438;-58
2023/10/27 02:53:27;;;;;;;0.40;0.30;;;;;;;15.66;100.00;94624.16;5134057;27;20463;-59
2023/10/27 02:55:55;;;;;;;0.50;0.30;;;;;;;15.63;100.00;94622.13;5133554;27;20430;-58
2023/10/27 02:58:24;;;;;;;0.40;0.20;;;;;;;15.78;100.00;94618.94;5133691;27;20887;-59
2023/10/27 03:00:52;;;;;;;8.83;0.40;;;;;;;15.56;100.00;94611.13;5133181;27;20513;-58
2023/10/27 03:03:20;;;;;;;0.60;0.60;;;;;;;15.36;100.00;94622.41;5134127;27;20450;-58
2023/10/27 03:05:50;;;;;;;1.43;0.97;;;;;;;15.37;100.00;94621.31;5107717;27;20442;-58
2023/10/27 03:08:18;;;;;;;1.37;0.40;;;;;;;15.10;100.00;94627.78;5133640;27;20842;-58
2023/10/27 03:10:47;;;;;;;0.40;0.30;;;;;;;15.40;100.00;94628.72;5134427;27;20478;-59
2023/10/27 03:13:15;;;;;;;0.40;0.30;;;;;;;15.54;100.00;94624.78;5133694;27;20471;-60
2023/10/27 03:15:43;;;;;;;0.53;0.40;;;;;;;15.44;100.00;94609.06;5133662;27;20438;-59
2023/10/27 03:18:12;;;;;;;0.50;0.33;;;;;;;15.32;100.00;94627.63;5133893;27;20510;-60
2023/10/27 03:20:41;;;;;;;0.83;0.77;;;;;;;15.15;100.00;94617.72;5134113;27;20491;-59
2023/10/27 03:23:10;;;;;;;0.50;0.30;;;;;;;15.45;100.00;94618.69;5133604;27;20483;-59
2023/10/27 03:25:39;;;;;;;0.60;0.50;;;;;;;14.80;100.00;94624.13;5133941;27;20480;-59
2023/10/27 03:28:07;;;;;;;0.40;0.30;;;;;;;15.05;100.00;94620.69;5129550;27;20534;-59
2023/10/27 03:30:35;;;;;;;0.40;0.30;;;;;;;15.49;100.00;94613.47;5124555;27;20446;-59
2023/10/27 03:33:04;;;;;;;0.50;0.33;;;;;;;15.63;100.00;94606.09;5133653;27;20928;-59
2023/10/27 03:35:32;;;;;;;0.53;0.30;;;;;;;15.55;100.00;94598.88;5133392;27;20434;-59
2023/10/27 03:38:01;;;;;;;2.93;0.40;;;;;;;15.63;100.00;94609.56;5133365;27;20512;-59
2023/10/27 03:40:31;;;;;;;0.83;0.50;;;;;;;15.65;100.00;94607.34;5133150;27;20525;-59
2023/10/27 03:42:59;;;;;;;0.50;0.30;;;;;;;15.74;100.00;94604.63;5132475;27;20474;-59
2023/10/27 03:45:27;;;;;;;0.40;0.30;;;;;;;15.79;100.00;94601.78;5133556;27;20821;-59
2023/10/27 03:47:56;;;;;;;1.00;0.60;;;;;;;15.72;100.00;94598.81;5132863;27;20872;-59
2023/10/27 03:50:24;;;;;;;0.53;0.40;;;;;;;15.41;100.00;94595.53;5133080;27;20431;-57
2023/10/27 03:52:54;;;;;;;0.60;0.40;;;;;;;15.37;100.00;94578.59;5133026;27;20430;-59
2023/10/27 03:55:22;;;;;;;0.60;0.53;;;;;;;15.80;100.00;94606.84;5131730;27;20439;-59
2023/10/27 03:57:55;;;;;;;0.50;0.30;;;;;;;15.73;100.00;94587.06;5133356;27;20446;-59
2023/10/27 04:00:24;;;;;;;1.03;0.30;;;;;;;15.74;100.00;94599.28;5132714;27;20434;-59
2023/10/27 04:02:53;;;;;;;0.80;0.33;;;;;;;15.80;100.00;94606.03;5132919;27;20509;-58
2023/10/27 04:05:21;;;;;;;1.27;1.10;;;;;;;15.63;100.00;94609.56;5132428;27;20434;-59
2023/10/27 04:07:50;;;;;;;0.60;0.47;;;;;;;15.68;100.00;94606.72;5132950;27;20534;-59
2023/10/27 04:10:18;;;;;;;11.93;0.50;;;;;;;15.56;100.00;94601.22;5132335;27;20529;-59
2023/10/27 04:12:48;;;;;;;0.50;0.50;;;;;;;15.35;100.00;94607.50;5132410;27;21008;-59
2023/10/27 04:15:18;;;;;;;1.43;0.50;;;;;;;15.66;100.00;94600.13;5131481;27;20489;-59
2023/10/27 04:17:46;;;;;;;0.40;0.30;;;;;;;15.80;100.00;94598.03;5133115;27;20435;-59
2023/10/27 04:20:15;;;;;;;2.73;1.13;;;;;;;15.72;100.00;94591.59;5131803;27;20812;-58
2023/10/27 04:22:43;;;;;;;0.70;0.60;;;;;;;15.69;100.00;94586.88;5132401;27;20470;-59
2023/10/27 04:25:12;;;;;;;0.60;0.50;;;;;;;15.06;100.00;94568.91;5132465;27;20976;-59
2023/10/27 04:27:41;;;;;;;0.77;0.40;;;;;;;14.91;100.00;94577.38;5132296;27;20595;-58
2023/10/27 04:30:11;;;;;;;0.77;0.77;;;;;;;15.23;100.00;94594.78;5132537;27;20951;-59
2023/10/27 04:32:41;;;;;;;4.37;1.47;;;;;;;14.94;100.00;94575.97;5132086;27;20868;-58
2023/10/27 04:35:11;;;;;;;0.83;0.60;;;;;;;14.99;100.00;94578.47;5132549;27;20453;-59
2023/10/27 04:37:40;;;;;;;0.80;0.80;;;;;;;15.27;100.00;94580.50;5131932;27;20435;-59
2023/10/27 04:40:09;;;;;;;1.57;0.70;;;;;;;15.30;100.00;94578.31;5132084;27;20430;-59
2023/10/27 04:42:37;;;;;;;0.70;0.67;;;;;;;15.13;100.00;94573.75;5131433;28;20470;-60
2023/10/27 04:45:07;;;;;;;0.90;0.90;;;;;;;15.23;100.00;94595.56;5131798;28;20514;-59
2023/10/27 04:47:35;;;;;;;0.70;0.70;;;;;;;15.18;100.00;94574.38;5131851;28;20513;-59
2023/10/27 04:50:08;;;;;;;1.40;1.10;;;;;;;15.19;100.00;94589.31;5132136;28;20445;-60
2023/10/27 04:52:37;;;;;;;1.47;1.37;;;;;;;15.11;100.00;94600.78;5132030;28;20443;-60
2023/10/27 04:55:06;;;;;;;0.83;0.83;;;;;;;15.09;100.00;94589.63;5131926;28;20499;-60
2023/10/27 04:57:36;;;;;;;1.27;1.17;;;;;;;14.90;100.00;94594.47;5132035;28;20438;-60
2023/10/27 05:00:05;;;;;;;0.67;0.67;;;;;;;15.57;100.00;94594.00;5132043;28;20466;-52
2023/10/27 05:02:34;;;;;;;0.97;0.60;;;;;;;16.17;100.00;94591.13;5105322;28;21203;-52
2023/10/27 05:05:02;;;;;;;1.30;1.20;;;;;;;16.60;100.00;94601.63;5131679;28;20430;-53
2023/10/27 05:07:32;;;;;;;22.13;1.17;;;;;;;16.60;100.00;94606.97;5131659;28;20435;-52
2023/10/27 05:10:00;;;;;;;1.03;1.03;;;;;;;16.23;100.00;94601.34;5131939;28;20439;-52
2023/10/27 05:12:29;;;;;;;0.50;0.50;;;;;;;16.08;100.00;94603.75;5132234;28;20442;-59
2023/10/27 05:14:57;;;;;;;1.10;0.60;;;;;;;15.63;100.00;94587.38;5121711;28;20437;-59
2023/10/27 05:17:25;;;;;;;0.70;0.53;;;;;;;15.82;100.00;94587.81;5132184;28;20465;-58
2023/10/27 05:19:54;;;;;;;0.83;0.83;;;;;;;15.55;100.00;94613.00;5124824;28;20439;-59
2023/10/27 05:22:23;;;;;;;0.57;0.33;;;;;;;15.53;100.00;94612.56;5125753;28;20569;-59
2023/10/27 05:24:53;;;;;;;2.00;0.97;;;;;;;15.53;100.00;94619.78;5132428;28;20454;-59
2023/10/27 05:27:22;;;;;;;0.50;0.40;;;;;;;15.82;100.00;94625.19;5131611;28;20501;-59
2023/10/27 05:29:50;;;;;;;0.40;0.40;;;;;;;15.77;100.00;94623.50;5132282;27;20434;-59
2023/10/27 05:32:18;;;;;;;0.60;0.33;;;;;;;15.57;100.00;94629.50;5135268;27;20434;-59
2023/10/27 05:34:47;;;;;;;0.57;0.57;;;;;;;15.57;100.00;94620.69;5135624;27;20438;-59
2023/10/27 05:37:16;;;;;;;0.87;0.87;;;;;;;15.86;100.00;94620.81;5135502;27;20430;-59
2023/10/27 05:39:44;;;;;;;0.50;0.40;;;;;;;16.01;100.00;94625.63;5125601;27;20815;-59
2023/10/27 05:42:14;;;;;;;0.50;0.40;;;;;;;16.14;100.00;94621.19;5132749;27;20430;-60
2023/10/27 05:44:43;;;;;;;0.60;0.40;;;;;;;16.06;100.00;94616.66;5136075;27;20850;-60
2023/10/27 05:47:11;;;;;;;0.93;0.93;;;;;;;16.05;100.00;94626.56;5135652;27;20458;-60
2023/10/27 05:49:39;;;;;;;0.60;0.50;;;;;;;16.34;100.00;94634.59;5135610;27;21008;-60
2023/10/27 05:52:08;;;;;;;0.50;0.40;;;;;;;16.38;100.00;94634.75;5135307;27;20509;-59
2023/10/27 05:54:36;;;;;;;0.70;0.60;;;;;;;16.35;100.00;94622.81;5135625;27;20435;-59
2023/10/27 05:57:07;;;;;;;1.93;1.83;;;;;;;16.10;100.00;94618.38;5108150;27;20434;-59
2023/10/27 05:59:37;;;;;;;0.70;0.50;;;;;;;16.32;100.00;94610.09;5135583;27;20507;-62
2023/10/27 06:02:05;;;;;;;0.60;0.50;;;;;;;16.51;100.00;94636.44;5135378;27;20980;-59
2023/10/27 06:04:42;;;;;;;0.60;0.53;;;;;;;16.31;100.00;94635.28;5134558;27;20672;-59
2023/10/27 06:07:15;;;;;;;2.77;1.47;;;;;;;15.95;100.00;94634.94;5135557;27;20446;-60
2023/10/27 06:09:44;;;;;;;0.63;0.63;;;;;;;16.42;100.00;94630.31;5134834;27;20536;-60
2023/10/27 06:12:13;;;;;;;0.50;0.40;;;;;;;16.34;100.00;94623.91;5134250;27;20502;-59
2023/10/27 06:14:45;;;;;;;0.60;0.50;;;;;;;17.14;100.00;94614.81;5133423;27;20465;-60
2023/10/27 06:17:13;;;;;;;0.60;0.60;;;;;;;17.52;100.00;94625.41;5134756;27;20435;-59
2023/10/27 06:19:41;;;;;;;1.27;0.60;;;;;;;17.06;100.00;94621.00;5134834;27;20431;-60
2023/10/27 06:22:10;;;;;;;0.60;0.40;;;;;;;17.04;100.00;94630.47;5108411;27;20431;-60
2023/10/27 06:24:39;;;;;;;0.60;0.60;;;;;;;17.00;100.00;94630.34;5133973;27;20474;-59
2023/10/27 06:27:08;;;;;;;1.33;0.73;;;;;;;17.02;100.00;94632.72;5134244;27;20470;-60
2023/10/27 06:29:37;;;;;;;0.83;0.83;;;;;;;17.15;100.00;94634.34;5134538;27;20452;-60
2023/10/27 06:32:07;;;;;;;0.83;0.60;;;;;;;17.18;100.00;94625.63;5134696;27;20434;-60
2023/10/27 06:34:35;;;;;;;0.80;0.80;;;;;;;18.05;100.00;94643.31;5134337;27;20833;-61
2023/10/27 06:37:05;;;;;;;0.50;0.40;;;;;;;17.60;100.00;94627.22;5134192;27;20491;-60
2023/10/27 06:39:34;;;;;;;0.73;0.70;;;;;;;17.12;100.00;94648.38;5133407;27;20434;-60
2023/10/27 06:42:02;;;;;;;0.50;0.40;;;;;;;17.24;100.00;94645.75;5132485;27;21177;-61
2023/10/27 06:44:30;;;;;;;1.47;0.73;;;;;;;16.71;100.00;94629.59;5134354;27;21049;-60
2023/10/27 06:46:58;;;;;;;2.00;0.80;;;;;;;17.18;100.00;94625.63;5134294;27;20788;-60
2023/10/27 06:49:28;;;;;;;2.00;1.03;;;;;;;17.35;100.00;94633.56;5134463;27;20434;-60
2023/10/27 06:51:57;;;;;;;0.50;0.47;;;;;;;17.55;100.00;94630.09;5134158;27;20441;-60
2023/10/27 06:54:25;;;;;;;1.60;0.87;;;;;;;17.25;100.00;94633.16;5133471;27;20501;-60
2023/10/27 06:56:54;;;;;;;0.70;0.60;;;;;;;16.68;100.00;94625.66;5132880;27;20488;-61
2023/10/27 06:59:22;;;;;;;2.67;0.80;;;;;;;16.70;100.00;94631.47;5107801;27;20889;-61
2023/10/27 07:01:52;;;;;;;0.93;0.50;;;;;;;17.14;100.00;94630.09;5134406;27;20441;-60
2023/10/27 07:04:21;;;;;;;0.73;0.60;;;;;;;17.57;100.00;94627.88;5133845;27;20506;-60
2023/10/27 07:06:50;;;;;;;0.93;0.93;;;;;;;17.52;100.00;94633.44;5133501;27;20529;-60
2023/10/27 07:09:20;;;;;;;0.90;0.53;;;;;;;17.91;100.00;94650.09;5133705;27;20852;-60
2023/10/27 07:11:49;;;;;;;1.37;0.60;;;;;;;17.61;100.00;94644.84;5134208;27;20521;-60
2023/10/27 07:14:17;;;;;;;0.53;0.53;;;;;;;17.17;100.00;94629.44;5134137;27;20520;-60
2023/10/27 07:16:46;;;;;;;0.50;0.30;;;;;;;17.40;100.00;94613.81;5133796;27;20426;-60
2023/10/27 07:19:14;;;;;;;0.60;0.50;;;;;;;17.27;100.00;94629.06;5133497;27;20897;-61
2023/10/27 07:21:46;;;;;;;1.07;1.03;;;;;;;16.71;100.00;94634.94;5133188;27;20437;-60
2023/10/27 07:24:16;;;;;;;1.70;0.50;;;;;;;16.74;100.00;94631.63;5134085;27;20501;-60
2023/10/27 07:26:44;;;;;;;0.67;0.63;;;;;;;17.03;100.00;94635.03;5132473;27;20500;-60
2023/10/27 07:29:13;;;;;;;0.50;0.50;;;;;;;17.58;100.00;94642.81;5133966;27;20525;-60
2023/10/27 07:31:41;;;;;;;0.60;0.50;;;;;;;17.51;100.00;94642.53;5133327;27;20435;-60
2023/10/27 07:34:09;;;;;;;0.70;0.70;;;;;;;17.65;100.00;94636.94;5132790;27;20442;-60
2023/10/27 07:36:38;;;;;;;0.90;0.30;;;;;;;17.57;100.00;94637.81;5133167;27;20936;-60
2023/10/27 07:39:06;;;;;;;0.40;0.30;;;;;;;17.85;100.00;94643.38;5133586;27;20438;-60
2023/10/27 07:41:37;;;;;;;0.50;0.30;;;;;;;17.98;100.00;94636.94;5125305;27;20813;-60
2023/10/27 07:44:06;;;;;;;1.00;0.70;;;;;;;18.12;100.00;94632.03;5128447;27;20461;-60
2023/10/27 07:46:34;;;;;;;0.70;0.50;;;;;;;17.88;100.00;94637.34;5133280;27;20474;-60
2023/10/27 07:49:03;;;;;;;0.90;0.70;;;;;;;18.08;100.00;94641.88;5133229;27;20514;-60
2023/10/27 07:51:31;;;;;;;8.53;0.50;;;;;;;18.13;100.00;94634.41;5133324;27;20443;-61
2023/10/27 07:54:00;;;;;;;0.70;0.40;;;;;;;18.41;100.00;94623.81;5132428;27;20513;-61
2023/10/27 07:56:29;;;;;;;0.70;0.60;;;;;;;18.52;100.00;94635.69;5133617;27;20427;-60
2023/10/27 07:58:59;;;;;;;0.43;0.33;;;;;;;18.51;100.00;94628.75;5133079;27;20435;-60
2023/10/27 08:01:27;;;;;;;1.50;1.40;;;;;;;18.80;100.00;94620.47;5132514;27;20466;-60
2023/10/27 08:03:56;;;;;;;0.40;0.33;;;;;;;18.79;100.00;94602.81;5133431;27;20470;-60
2023/10/27 08:06:24;;;;;;;0.47;0.30;;;;;;;19.13;100.00;94611.44;5133217;27;20438;-60
2023/10/27 08:08:52;;;;;;;1.17;1.07;;;;;;;19.14;100.00;94610.34;5132881;27;20445;-60
2023/10/27 08:11:21;;;;;;;7.13;1.00;;;;;;;19.28;100.00;94614.22;5132613;27;20967;-60
2023/10/27 08:13:49;;;;;;;3.33;0.87;;;;;;;18.92;100.00;94593.59;5132637;27;20442;-59
2023/10/27 08:16:19;;;;;;;1.33;0.77;;;;;;;18.82;100.00;94612.09;5133040;27;20483;-60
2023/10/27 08:18:47;;;;;;;1.23;0.60;;;;;;;18.42;100.00;94615.41;5106265;27;20430;-60
2023/10/27 08:21:16;;;;;;;25.63;2.27;;;;;;;18.28;100.00;94616.88;5132384;27;20442;-60
2023/10/27 08:23:44;;;;;;;4.20;4.00;;;;;;;18.08;100.00;94615.84;5133067;27;20868;-59
2023/10/27 08:26:12;;;;;;;2.50;2.13;;;;;;;18.40;100.00;94617.66;5132543;27;20535;-59
2023/10/27 08:28:41;;;;;;;1.97;1.87;;;;;;;18.59;100.00;94609.09;5132514;27;21025;-58
2023/10/27 08:31:09;;;;;;;1.33;1.33;;;;;;;19.05;100.00;94556.75;5132731;27;20434;-59
2023/10/27 08:33:42;;;;;;;0.77;0.77;;;;;;;19.83;100.00;94618.84;5132914;27;20442;-57
2023/10/27 08:36:11;;;;;;;2.63;1.43;;;;;;;20.78;96.65;94615.09;5132308;27;20442;-57
2023/10/27 08:38:39;;;;;;;1.00;0.47;;;;;;;21.80;89.86;94606.50;5132635;27;20967;-57
2023/10/27 08:41:08;;;;;;;1.63;1.53;;;;;;;22.35;84.54;94599.00;5131592;27;20936;-58
2023/10/27 08:43:38;;;;;;;0.90;0.60;;;;;;;23.12;81.68;94602.91;5132359;27;20487;-59
2023/10/27 08:46:09;;;;;;;0.70;0.67;;;;;;;22.90;78.70;94600.28;5132220;28;20513;-59
2023/10/27 08:48:37;;;;;;;1.90;1.80;;;;;;;22.57;78.63;94590.88;5124456;28;20890;-59
2023/10/27 08:51:10;;;;;;;3.87;0.60;;;;;;;22.89;77.87;94588.69;5132558;28;21068;-60
2023/10/27 08:53:42;;;;;;;6.37;1.27;;;;;;;23.26;75.31;94594.22;5128165;28;20481;-60
2023/10/27 08:56:12;;;;;;;1.00;0.80;;;;;;;23.32;76.10;94603.56;5125474;28;20442;-59
2023/10/27 08:58:41;;;;;;;1.03;0.90;;;;;;;23.51;76.70;94600.75;5131995;28;20442;-58
2023/10/27 09:01:09;;;;;;;0.80;0.50;;;;;;;23.70;75.16;94592.50;5132431;28;20849;-56
2023/10/27 09:03:37;;;;;;;0.67;0.67;;;;;;;23.31;73.67;94562.22;5132019;28;20501;-56
2023/10/27 09:06:11;;;;;;;0.40;0.30;;;;;;;23.59;75.15;94591.56;5134576;27;20480;-56
2023/10/27 09:08:39;;;;;;;0.80;0.73;;;;;;;23.07;74.42;94600.53;5136002;27;20480;-56
2023/10/27 09:11:08;;;;;;;1.07;0.57;;;;;;;23.23;74.15;94600.34;5136368;27;20434;-56
2023/10/27 09:13:57;;;;;;;0.57;0.57;;;;;;;22.80;73.87;94601.69;5135931;27;21019;-55
2023/10/27 09:16:26;;;;;;;0.83;0.83;;;;;;;22.22;76.09;94593.00;5135768;27;20475;-55
2023/10/27 09:18:55;;;;;;;1.07;0.40;;;;;;;22.19;77.69;94574.81;5136109;27;20434;-55
2023/10/27 09:21:32;;;;;;;1.23;1.20;;;;;;;21.48;79.93;94591.59;5136579;27;20434;-55
2023/10/27 09:24:00;;;;;;;0.40;0.30;;;;;;;21.58;82.59;94576.78;5136128;27;20446;-54
2023/10/27 09:26:29;;;;;;;0.83;0.70;;;;;;;21.95;80.84;94575.19;5135994;27;20494;-53
2023/10/27 09:29:03;;;;;;;0.70;0.70;;;;;;;22.04;80.81;94551.44;5136288;27;20942;-54
2023/10/27 09:31:35;;;;;;;0.60;0.53;;;;;;;21.40;81.68;94552.91;5135900;27;20495;-54
2023/10/27 09:34:20;;;;;;;0.60;0.50;;;;;;;21.92;80.87;94567.78;5135654;27;20430;-53
2023/10/27 09:36:52;;;;;;;1.93;0.40;;;;;;;21.92;79.89;94559.69;5112974;27;20921;-53
2023/10/27 09:39:22;;;;;;;0.60;0.50;;;;;;;22.87;77.77;94555.09;5135426;27;20443;-54
2023/10/27 09:41:58;;;;;;;0.50;0.50;;;;;;;23.94;72.77;94537.06;5135882;27;20487;-56
2023/10/27 09:44:39;;;;;;;0.50;0.30;;;;;;;24.62;69.38;94528.34;5135124;27;20430;-55
2023/10/27 09:47:14;;;;;;;0.40;0.30;;;;;;;23.95;70.38;94525.88;5135316;27;20473;-56
2023/10/27 09:49:45;;;;;;;0.83;0.83;;;;;;;23.77;70.84;94518.72;5110732;27;20433;-56
2023/10/27 09:52:21;;;;;;;0.50;0.30;;;;;;;24.22;69.95;94514.91;5135022;27;20948;-56
2023/10/27 09:54:51;;;;;;;1.90;0.40;;;;;;;24.49;69.85;94517.03;5134820;27;20466;-55
2023/10/27 09:57:30;;;;;;;0.70;0.50;;;;;;;24.49;66.84;94511.63;5135304;27;20469;-56
2023/10/27 10:00:00;;;;;;;0.40;0.37;;;;;;;24.86;66.56;94459.22;5135784;27;20437;-55
2023/10/27 10:02:31;;;;;;;0.40;0.27;;;;;;;25.60;64.29;94478.50;5135040;27;20449;-56
2023/10/27 10:05:01;;;;;;;1.10;1.00;;;;;;;25.99;61.69;94498.34;5134640;27;20462;-56
2023/10/27 10:07:35;;;;;;;0.40;0.40;;;;;;;26.90;59.29;94499.50;5135255;27;20435;-56
2023/10/27 10:10:26;;;;;;;1.27;1.17;;;;;;;27.73;57.03;94486.75;5134613;27;20458;-56
2023/10/27 10:13:03;;;;;;;0.40;0.30;;;;;;;28.28;56.93;94475.13;5134851;27;20485;-55
2023/10/27 10:15:32;;;;;;;1.07;0.40;;;;;;;27.37;57.19;94411.13;5101711;28;20439;-56
2023/10/27 10:18:01;;;;;;;0.60;0.50;;;;;;;26.99;57.67;94461.81;5127773;27;20439;-55
2023/10/27 10:20:57;;;;;;;0.47;0.40;;;;;;;26.48;59.68;94476.66;5134589;27;20510;-55
2023/10/27 10:23:59;;;;;;;0.40;0.30;;;;;;;25.82;61.92;94452.97;5134536;27;20940;-55
2023/10/27 10:27:00;;;;;;;0.43;0.40;;;;;;;24.89;63.22;94439.50;5127112;27;20500;-55
2023/10/27 10:29:32;;;;;;;0.40;0.30;;;;;;;25.13;64.03;94455.88;5125435;27;20923;-55
2023/10/27 10:32:35;;;;;;;0.70;0.60;;;;;;;25.33;63.23;94463.66;5134210;27;20776;-55
2023/10/27 10:35:27;;;;;;;1.43;1.30;;;;;;;26.29;61.53;94433.56;5134656;27;20767;-55
2023/10/27 10:37:56;;;;;;;1.23;0.50;;;;;;;26.32;61.49;94435.53;5108131;27;20454;-55
2023/10/27 10:40:26;;;;;;;0.40;0.30;;;;;;;26.14;61.74;94429.31;5134330;27;20483;-55
2023/10/27 10:43:21;;;;;;;0.50;0.40;;;;;;;25.80;62.24;94426.22;5134476;27;20434;-55
2023/10/27 10:45:53;;;;;;;1.60;0.50;;;;;;;25.95;61.62;94423.47;5110018;27;20799;-55
2023/10/27 10:48:24;;;;;;;0.70;0.40;;;;;;;25.68;62.74;94423.06;5134322;27;20437;-56
2023/10/27 10:50:55;;;;;;;0.40;0.40;;;;;;;26.59;60.49;94429.66;5133902;27;20454;-56
2023/10/27 10:53:25;;;;;;;0.40;0.30;;;;;;;26.63;58.84;94419.53;5134331;27;20785;-61
2023/10/27 10:55:59;;;;;;;0.40;0.30;;;;;;;26.33;60.00;94434.38;5134150;27;20458;-61
2023/10/27 10:58:29;;;;;;;1.27;0.43;;;;;;;26.83;58.28;94437.78;5133753;27;20456;-61
2023/10/27 11:01:00;;;;;;;0.40;0.33;;;;;;;26.20;59.92;94435.94;5134133;27;20430;-61
2023/10/27 11:03:31;;;;;;;5.03;0.40;;;;;;;25.76;61.91;94419.19;5134095;27;20435;-61
2023/10/27 11:06:01;;;;;;;0.40;0.30;;;;;;;25.81;60.54;94422.31;5133839;27;20466;-61
2023/10/27 11:08:32;;;;;;;0.40;0.30;;;;;;;26.31;61.03;94425.81;5133752;27;20491;-61
2023/10/27 11:11:04;;;;;;;5.00;0.30;;;;;;;26.38;60.38;94423.09;5133866;27;20427;-60
2023/10/27 11:13:34;;;;;;;0.70;0.70;;;;;;;25.05;58.27;94139.78;5132907;27;20430;-60
2023/10/27 11:16:13;;;;;;;0.40;0.30;;;;;;;26.61;57.81;94405.56;5133975;27;20442;-61
2023/10/27 11:18:43;;;;;;;0.50;0.30;;;;;;;26.47;58.90;94419.97;5133345;27;20946;-60
2023/10/27 11:21:16;;;;;;;2.73;0.50;;;;;;;26.92;57.48;94408.19;5133517;27;20920;-60
2023/10/27 11:23:45;;;;;;;0.50;0.40;;;;;;;27.34;57.41;94420.84;5134012;27;20430;-62
2023/10/27 11:26:16;;;;;;;0.40;0.23;;;;;;;27.73;55.77;94435.00;5133163;27;20546;-62
2023/10/27 11:28:45;;;;;;;7.77;0.60;;;;;;;28.26;54.73;94401.91;5133560;27;20919;-63
2023/10/27 11:31:27;;;;;;;0.77;0.60;;;;;;;28.13;54.24;94414.50;5130028;27;20444;-64
2023/10/27 11:33:57;;;;;;;0.40;0.20;;;;;;;28.64;54.50;94408.19;5123166;27;20426;-62
2023/10/27 11:36:26;;;;;;;0.40;0.30;;;;;;;28.87;53.14;94413.78;5125539;27;20449;-63
2023/10/27 11:38:55;;;;;;;0.40;0.30;;;;;;;28.68;52.58;94411.66;5133282;27;20427;-63
2023/10/27 11:41:23;;;;;;;0.40;0.40;;;;;;;28.90;51.11;94404.78;5133502;27;20948;-62